createdAt,value
2023-01-13T00:00:14.338Z,10.07
2023-01-13T00:05:38.652Z,10.23
2023-01-13T00:10:48.401Z,14.68
2023-01-13T00:15:57.415Z,11.48
2023-01-13T00:21:02.992Z,9.10
2023-01-13T00:26:10.794Z,8.68
2023-01-13T00:31:17.496Z,9.68
2023-01-13T00:36:23.250Z,9.95
2023-01-13T00:41:29.345Z,14.10
2023-01-13T00:46:33.492Z,8.70
2023-01-13T00:51:37.671Z,8.25
2023-01-13T00:56:45.219Z,7.95
2023-01-13T01:01:51.851Z,8.13
2023-01-13T01:06:56.725Z,9.48
2023-01-13T01:12:03.826Z,7.43
2023-01-13T01:17:10.485Z,8.63
2023-01-13T01:22:16.844Z,8.93
2023-01-13T01:27:24.890Z,7.10
2023-01-13T01:32:31.702Z,7.75
2023-01-13T01:37:38.133Z,6.35
2023-01-13T01:43:03.261Z,6.93
2023-01-13T01:48:11.073Z,6.90
2023-01-13T01:53:22.084Z,6.05
2023-01-13T01:58:34.584Z,6.35
2023-01-13T02:03:45.696Z,7.07
2023-01-13T02:08:54.793Z,6.93
2023-01-13T02:14:02.555Z,6.53
2023-01-13T02:19:25.591Z,6.10
2023-01-13T02:25:07.726Z,7.72
2023-01-13T02:30:41.786Z,7.03
2023-01-13T02:35:54.367Z,7.25
2023-01-13T02:41:26.632Z,5.90
2023-01-13T02:46:38.359Z,5.50
2023-01-13T02:51:47.922Z,6.15
2023-01-13T02:56:57.271Z,5.80
2023-01-13T03:02:06.631Z,5.80
2023-01-13T03:07:19.532Z,6.07
2023-01-13T03:12:31.464Z,5.30
2023-01-13T03:17:44.021Z,5.82
2023-01-13T03:22:58.608Z,5.95
2023-01-13T03:28:07.160Z,6.78
2023-01-13T03:33:19.123Z,5.20
2023-01-13T03:38:32.288Z,8.25
2023-01-13T03:44:01.676Z,6.15
2023-01-13T03:49:13.684Z,4.88
2023-01-13T03:54:25.025Z,4.72
2023-01-13T03:59:34.702Z,5.57
2023-01-13T04:04:47.017Z,5.22
2023-01-13T04:09:56.768Z,7.45
2023-01-13T04:15:03.928Z,5.50
2023-01-13T04:20:13.707Z,6.78
2023-01-13T04:25:21.105Z,4.55
2023-01-13T04:30:28.757Z,5.32
2023-01-13T04:35:37.781Z,5.55
2023-01-13T04:40:44.941Z,5.05
2023-01-13T04:45:52.465Z,5.05
2023-01-13T04:50:59.939Z,5.40
2023-01-13T04:56:05.664Z,6.10
2023-01-13T05:06:19.341Z,6.03
2023-01-13T05:11:42.750Z,6.07
2023-01-13T05:17:03.949Z,6.20
2023-01-13T05:22:29.053Z,5.60
2023-01-13T05:27:36.513Z,6.07
2023-01-13T05:32:44.148Z,6.30
2023-01-13T05:37:52.635Z,5.97
2023-01-13T05:43:25.018Z,6.45
2023-01-13T05:48:35.109Z,5.97
2023-01-13T05:53:43.669Z,6.32
2023-01-13T05:58:51.364Z,8.35
2023-01-13T06:03:57.958Z,8.80
2023-01-13T06:09:05.696Z,6.80
2023-01-13T06:14:12.431Z,6.35
2023-01-13T06:19:19.871Z,6.70
2023-01-13T06:24:28.093Z,6.90
2023-01-13T06:29:35.185Z,6.55
2023-01-13T06:34:43.875Z,5.80
2023-01-13T06:39:52.739Z,6.88
2023-01-13T06:45:00.520Z,6.30
2023-01-13T06:50:08.323Z,6.45
2023-01-13T06:55:16.564Z,6.70
2023-01-13T07:00:25.703Z,7.03
2023-01-13T07:05:33.094Z,6.90
2023-01-13T07:10:41.814Z,6.82
2023-01-13T07:16:00.029Z,5.72
2023-01-13T07:21:09.401Z,6.53
2023-01-13T07:26:19.012Z,6.50
2023-01-13T07:31:26.756Z,6.88
2023-01-13T07:36:34.421Z,9.27
2023-01-13T07:42:00.396Z,8.82
2023-01-13T07:47:09.328Z,8.80
2023-01-13T07:52:16.541Z,9.25
2023-01-13T07:57:24.427Z,13.38
2023-01-13T08:02:31.438Z,11.18
2023-01-13T08:07:37.894Z,8.60
2023-01-13T08:13:01.406Z,9.35
2023-01-13T08:18:05.576Z,7.95
2023-01-13T08:23:12.015Z,8.73
2023-01-13T08:28:19.195Z,9.88
2023-01-13T08:33:25.298Z,8.65
2023-01-13T08:38:32.408Z,7.97
2023-01-13T08:43:41.231Z,8.32
2023-01-13T08:48:48.559Z,9.02
2023-01-13T08:53:56.031Z,7.95
2023-01-13T08:59:05.133Z,8.70
2023-01-13T09:04:19.215Z,9.57
2023-01-13T09:09:28.410Z,8.30
2023-01-13T09:14:38.717Z,9.40
2023-01-13T09:19:46.147Z,8.10
2023-01-13T09:24:53.482Z,8.00
2023-01-13T09:30:02.404Z,8.60
2023-01-13T09:35:08.884Z,7.93
2023-01-13T09:40:23.024Z,8.40
2023-01-13T09:45:34.071Z,8.48
2023-01-13T09:51:02.131Z,7.80
2023-01-13T09:56:12.088Z,7.35
2023-01-13T10:01:29.532Z,6.80
2023-01-13T10:06:39.875Z,8.20
2023-01-13T10:12:06.126Z,7.65
2023-01-13T10:17:23.369Z,7.97
2023-01-13T10:22:54.701Z,7.88
2023-01-13T10:28:11.006Z,12.43
2023-01-13T10:33:29.562Z,7.65
2023-01-13T10:38:41.830Z,8.15
2023-01-13T10:44:00.047Z,9.57
2023-01-13T10:49:34.480Z,9.55
2023-01-13T10:54:53.232Z,8.02
2023-01-13T10:59:59.823Z,6.95
2023-01-13T11:05:24.695Z,7.50
2023-01-13T11:10:34.004Z,7.93
2023-01-13T11:15:47.038Z,7.65
2023-01-13T11:20:57.929Z,7.72
2023-01-13T11:26:11.374Z,7.30
2023-01-13T11:31:22.536Z,7.90
2023-01-13T11:36:34.571Z,8.95
2023-01-13T11:41:46.743Z,8.15
2023-01-13T11:46:54.456Z,6.13
2023-01-13T11:52:06.201Z,6.90
2023-01-13T11:57:38.041Z,7.15
2023-01-13T12:02:58.715Z,7.28
2023-01-13T12:08:19.872Z,6.93
2023-01-13T12:13:36.173Z,7.95
2023-01-13T12:19:16.913Z,8.48
2023-01-13T12:24:31.558Z,5.97
2023-01-13T12:29:40.541Z,8.25
2023-01-13T12:35:06.674Z,7.32
2023-01-13T12:40:33.860Z,6.27
2023-01-13T12:45:40.099Z,7.60
2023-01-13T12:50:47.116Z,8.18
2023-01-13T12:55:54.246Z,6.75
2023-01-13T13:06:15.960Z,6.40
2023-01-13T13:11:58.743Z,7.20
2023-01-13T13:17:03.176Z,7.05
2023-01-13T13:22:39.261Z,8.07
2023-01-13T13:27:51.346Z,8.82
2023-01-13T13:33:07.535Z,7.30
2023-01-13T13:38:43.940Z,7.68
2023-01-13T13:44:07.283Z,7.43
2023-01-13T13:49:12.001Z,8.20
2023-01-13T13:54:19.429Z,9.15
2023-01-13T13:59:27.214Z,8.75
2023-01-13T14:04:33.733Z,8.38
2023-01-13T14:09:43.095Z,8.10
2023-01-13T14:14:49.671Z,7.72
2023-01-13T14:19:56.926Z,8.30
2023-01-13T14:25:02.103Z,8.38
2023-01-13T14:30:20.563Z,7.90
2023-01-13T14:35:24.779Z,7.30
2023-01-13T14:40:47.006Z,8.77
2023-01-13T14:46:00.745Z,8.55
2023-01-13T14:51:09.575Z,12.98
2023-01-13T14:56:43.558Z,8.95
2023-01-13T15:01:49.180Z,8.93
2023-01-13T15:12:00.759Z,8.25
2023-01-13T15:17:19.479Z,7.93
2023-01-13T15:22:23.734Z,7.20
2023-01-13T15:27:28.011Z,8.52
2023-01-13T15:32:33.665Z,7.85
2023-01-13T15:37:38.158Z,8.20
2023-01-13T15:42:59.928Z,8.45
2023-01-13T15:48:06.098Z,8.40
2023-01-13T15:53:14.377Z,7.18
2023-01-13T15:58:22.020Z,7.00
2023-01-13T16:03:27.579Z,8.65
2023-01-13T16:08:34.276Z,8.95
2023-01-13T16:13:38.543Z,7.80
2023-01-13T16:18:44.103Z,8.15
2023-01-13T16:23:49.025Z,7.32
2023-01-13T16:28:55.701Z,7.00
2023-01-13T16:34:02.234Z,7.03
2023-01-13T16:39:19.642Z,7.22
2023-01-13T16:44:24.057Z,7.38
2023-01-13T16:49:29.545Z,7.68
2023-01-13T16:54:34.822Z,6.97
2023-01-13T16:59:38.994Z,7.32
2023-01-13T17:04:44.499Z,7.15
2023-01-13T17:09:49.210Z,7.90
2023-01-13T17:14:53.521Z,9.07
2023-01-13T17:19:59.960Z,12.23
2023-01-13T17:25:04.136Z,8.20
2023-01-13T17:30:09.677Z,7.85
2023-01-13T17:40:23.630Z,7.82
2023-01-13T17:45:27.819Z,8.38
2023-01-13T17:50:34.494Z,8.27
2023-01-13T17:55:38.711Z,8.40
2023-01-13T18:00:43.242Z,7.72
2023-01-13T18:05:49.473Z,7.60
2023-01-13T18:10:54.836Z,10.10
2023-01-13T18:16:04.436Z,11.85
2023-01-13T18:21:36.537Z,10.35
2023-01-13T18:26:58.412Z,12.55
2023-01-13T18:32:02.627Z,8.63
2023-01-13T18:37:10.193Z,8.73
2023-01-13T18:42:31.874Z,9.35
2023-01-13T18:47:39.109Z,7.15
2023-01-13T18:52:44.989Z,9.07
2023-01-13T18:57:49.476Z,7.45
2023-01-13T19:08:12.365Z,7.40
2023-01-13T19:18:22.444Z,7.38
2023-01-13T19:23:28.038Z,6.95
2023-01-13T19:28:32.431Z,6.68
2023-01-13T19:33:38.097Z,6.25
2023-01-13T19:38:43.704Z,7.22
2023-01-13T19:44:04.944Z,6.07
2023-01-13T19:49:10.462Z,6.00
2023-01-13T19:54:16.137Z,6.70
2023-01-13T19:59:29.113Z,6.18
2023-01-13T20:04:38.447Z,13.75
2023-01-13T20:09:45.403Z,8.00
2023-01-13T20:14:50.118Z,6.68
2023-01-13T20:19:54.539Z,6.97
2023-01-13T20:25:00.136Z,9.02
2023-01-13T20:35:09.619Z,7.65
2023-01-13T20:40:18.455Z,6.90
2023-01-13T20:45:23.460Z,7.45
2023-01-13T20:50:27.698Z,7.17
2023-01-13T20:55:33.385Z,7.45
2023-01-13T21:00:37.657Z,6.30
2023-01-13T21:05:41.792Z,6.25
2023-01-13T21:10:47.511Z,6.28
2023-01-13T21:15:52.582Z,7.07
2023-01-13T21:21:11.747Z,6.63
2023-01-13T21:26:19.520Z,7.47
2023-01-13T21:31:25.806Z,8.70
2023-01-13T21:36:31.200Z,7.70
2023-01-13T21:41:54.190Z,7.60
2023-01-13T21:47:15.870Z,8.48
2023-01-13T21:52:20.099Z,7.40
2023-01-13T21:57:27.280Z,12.18
2023-01-13T22:02:33.071Z,10.23
2023-01-13T22:12:44.742Z,8.50
2023-01-13T22:17:52.413Z,9.55
2023-01-13T22:22:56.719Z,9.93
2023-01-13T22:28:06.141Z,12.73
2023-01-13T22:33:10.775Z,11.95
2023-01-13T22:38:15.866Z,12.50
2023-01-13T22:43:21.485Z,11.33
2023-01-13T22:48:25.913Z,11.90
2023-01-13T22:53:30.589Z,9.25
2023-01-13T22:58:36.347Z,11.40
2023-01-13T23:03:42.086Z,12.07
2023-01-13T23:08:47.461Z,10.00
2023-01-13T23:13:58.686Z,8.60
2023-01-13T23:19:03.163Z,9.95
2023-01-13T23:24:08.684Z,9.07
2023-01-13T23:29:14.865Z,9.35
2023-01-13T23:34:19.200Z,9.45
2023-01-13T23:39:24.652Z,9.02
2023-01-13T23:44:30.645Z,8.60
2023-01-13T23:54:39.097Z,7.50
2023-01-13T23:59:45.089Z,6.80
